sensor_id;sensor_type;location;lat;lon;timestamp;temperature;humidity
38221;DHT22;24023;51.280;7.148;2023-06-26T00:00:12;23.7;63.3
38221;DHT22;24023;51.280;7.148;2023-06-26T00:05:07;23.3;68.2
38221;DHT22;24023;51.280;7.148;2023-06-26T00:10:09;23.0;67.4
38221;DHT22;24023;51.280;7.148;2023-06-26T00:15:09;23.2;67.1
38221;DHT22;24023;51.280;7.148;2023-06-26T00:20:09;23.0;68.4
38221;DHT22;24023;51.280;7.148;2023-06-26T00:25:07;23.0;64.9
38221;DHT22;24023;51.280;7.148;2023-06-26T00:30:10;23.3;67.5
38221;DHT22;24023;51.280;7.148;2023-06-26T00:35:07;22.7;69.7
38221;DHT22;24023;51.280;7.148;2023-06-26T00:40:09;22.4;70.5
38221;DHT22;24023;51.280;7.148;2023-06-26T00:45:10;22.4;70.5
38221;DHT22;24023;51.280;7.148;2023-06-26T00:50:08;22.1;73.7
38221;DHT22;24023;51.280;7.148;2023-06-26T00:55:08;22.3;69.0
38221;DHT22;24023;51.280;7.148;2023-06-26T01:00:12;22.2;72.1
38221;DHT22;24023;51.280;7.148;2023-06-26T01:05:07;22.1;71.9
38221;DHT22;24023;51.280;7.148;2023-06-26T01:10:08;22.0;72.1
38221;DHT22;24023;51.280;7.148;2023-06-26T01:15:08;22.2;69.8
38221;DHT22;24023;51.280;7.148;2023-06-26T01:20:09;22.0;72.1
38221;DHT22;24023;51.280;7.148;2023-06-26T01:25:14;21.8;74.6
38221;DHT22;24023;51.280;7.148;2023-06-26T01:30:10;21.6;75.5
38221;DHT22;24023;51.280;7.148;2023-06-26T01:35:08;21.5;73.3
38221;DHT22;24023;51.280;7.148;2023-06-26T01:40:09;21.4;75.9
38221;DHT22;24023;51.280;7.148;2023-06-26T01:45:14;21.5;73.5
38221;DHT22;24023;51.280;7.148;2023-06-26T01:50:12;21.5;73.5
38221;DHT22;24023;51.280;7.148;2023-06-26T01:55:12;21.6;75.8
38221;DHT22;24023;51.280;7.148;2023-06-26T02:00:14;21.3;76.1
38221;DHT22;24023;51.280;7.148;2023-06-26T02:05:07;21.4;73.8
38221;DHT22;24023;51.280;7.148;2023-06-26T02:10:09;21.3;76.2
38221;DHT22;24023;51.280;7.148;2023-06-26T02:15:09;21.3;76.2
38221;DHT22;24023;51.280;7.148;2023-06-26T02:20:10;21.3;74.5
38221;DHT22;24023;51.280;7.148;2023-06-26T02:25:07;21.2;74.5
38221;DHT22;24023;51.280;7.148;2023-06-26T02:30:10;21.2;74.5
38221;DHT22;24023;51.280;7.148;2023-06-26T02:35:07;21.3;73.2
38221;DHT22;24023;51.280;7.148;2023-06-26T02:40:10;21.2;75.4
38221;DHT22;24023;51.280;7.148;2023-06-26T02:45:11;21.4;70.4
38221;DHT22;24023;51.280;7.148;2023-06-26T02:50:09;21.3;74.3
38221;DHT22;24023;51.280;7.148;2023-06-26T02:55:07;21.3;74.3
38221;DHT22;24023;51.280;7.148;2023-06-26T03:00:13;21.5;73.1
38221;DHT22;24023;51.280;7.148;2023-06-26T03:05:08;21.4;70.1
38221;DHT22;24023;51.280;7.148;2023-06-26T03:10:09;21.9;67.4
38221;DHT22;24023;51.280;7.148;2023-06-26T03:15:08;22.4;65.9
38221;DHT22;24023;51.280;7.148;2023-06-26T03:20:08;22.0;70.2
38221;DHT22;24023;51.280;7.148;2023-06-26T03:25:07;22.2;68.9
38221;DHT22;24023;51.280;7.148;2023-06-26T03:30:11;22.2;68.9
38221;DHT22;24023;51.280;7.148;2023-06-26T03:35:07;22.1;71.0
38221;DHT22;24023;51.280;7.148;2023-06-26T03:40:09;22.1;71.0
38221;DHT22;24023;51.280;7.148;2023-06-26T03:45:09;22.1;71.0
38221;DHT22;24023;51.280;7.148;2023-06-26T03:50:08;22.0;70.5
38221;DHT22;24023;51.280;7.148;2023-06-26T03:55:06;22.0;70.5
38221;DHT22;24023;51.280;7.148;2023-06-26T04:00:14;22.0;73.3
38221;DHT22;24023;51.280;7.148;2023-06-26T04:05:06;22.0;73.3
38221;DHT22;24023;51.280;7.148;2023-06-26T04:10:09;21.8;75.7
38221;DHT22;24023;51.280;7.148;2023-06-26T04:15:08;21.8;75.7
38221;DHT22;24023;51.280;7.148;2023-06-26T04:20:09;21.9;75.0
38221;DHT22;24023;51.280;7.148;2023-06-26T04:25:08;21.9;75.0
38221;DHT22;24023;51.280;7.148;2023-06-26T04:30:11;22.0;77.4
38221;DHT22;24023;51.280;7.148;2023-06-26T04:35:07;22.0;77.4
38221;DHT22;24023;51.280;7.148;2023-06-26T04:40:10;21.8;78.0
38221;DHT22;24023;51.280;7.148;2023-06-26T04:45:11;21.8;78.0
38221;DHT22;24023;51.280;7.148;2023-06-26T04:50:09;21.8;80.1
38221;DHT22;24023;51.280;7.148;2023-06-26T04:55:07;21.9;78.8
38221;DHT22;24023;51.280;7.148;2023-06-26T05:00:12;21.9;78.8
38221;DHT22;24023;51.280;7.148;2023-06-26T05:05:07;21.9;80.0
38221;DHT22;24023;51.280;7.148;2023-06-26T05:10:08;21.9;80.0
38221;DHT22;24023;51.280;7.148;2023-06-26T05:15:09;21.9;80.0
38221;DHT22;24023;51.280;7.148;2023-06-26T05:20:09;22.0;80.6
38221;DHT22;24023;51.280;7.148;2023-06-26T05:25:09;22.0;80.6
38221;DHT22;24023;51.280;7.148;2023-06-26T05:30:11;22.0;79.1
38221;DHT22;24023;51.280;7.148;2023-06-26T05:35:07;22.1;80.0
38221;DHT22;24023;51.280;7.148;2023-06-26T05:40:09;22.1;80.0
38221;DHT22;24023;51.280;7.148;2023-06-26T05:45:10;22.1;80.0
38221;DHT22;24023;51.280;7.148;2023-06-26T05:50:10;22.3;79.6
38221;DHT22;24023;51.280;7.148;2023-06-26T05:55:08;22.3;79.6
38221;DHT22;24023;51.280;7.148;2023-06-26T06:00:12;22.1;78.8
38221;DHT22;24023;51.280;7.148;2023-06-26T06:05:07;22.1;78.8
38221;DHT22;24023;51.280;7.148;2023-06-26T06:10:09;22.1;78.8
38221;DHT22;24023;51.280;7.148;2023-06-26T06:15:08;22.2;78.1
38221;DHT22;24023;51.280;7.148;2023-06-26T06:20:09;22.2;78.1
38221;DHT22;24023;51.280;7.148;2023-06-26T06:25:07;21.9;79.7
38221;DHT22;24023;51.280;7.148;2023-06-26T06:30:10;21.9;79.7
38221;DHT22;24023;51.280;7.148;2023-06-26T06:35:10;21.9;79.7
38221;DHT22;24023;51.280;7.148;2023-06-26T06:40:10;22.3;79.6
38221;DHT22;24023;51.280;7.148;2023-06-26T06:45:11;22.3;79.6
38221;DHT22;24023;51.280;7.148;2023-06-26T06:50:09;22.2;80.0
38221;DHT22;24023;51.280;7.148;2023-06-26T06:55:09;22.2;80.0
38221;DHT22;24023;51.280;7.148;2023-06-26T07:00:13;22.2;79.4
38221;DHT22;24023;51.280;7.148;2023-06-26T07:05:07;22.2;81.6
38221;DHT22;24023;51.280;7.148;2023-06-26T07:10:10;22.2;81.6
38221;DHT22;24023;51.280;7.148;2023-06-26T07:15:08;22.2;81.6
38221;DHT22;24023;51.280;7.148;2023-06-26T07:20:09;22.5;80.0
38221;DHT22;24023;51.280;7.148;2023-06-26T07:25:09;22.5;80.0
38221;DHT22;24023;51.280;7.148;2023-06-26T07:30:10;23.0;78.7
38221;DHT22;24023;51.280;7.148;2023-06-26T07:35:07;22.7;79.6
38221;DHT22;24023;51.280;7.148;2023-06-26T07:40:09;22.7;79.6
38221;DHT22;24023;51.280;7.148;2023-06-26T07:45:11;23.1;80.4
38221;DHT22;24023;51.280;7.148;2023-06-26T07:50:09;23.1;80.4
38221;DHT22;24023;51.280;7.148;2023-06-26T07:55:07;23.2;78.3
38221;DHT22;24023;51.280;7.148;2023-06-26T08:00:12;22.9;80.7
38221;DHT22;24023;51.280;7.148;2023-06-26T08:05:07;22.9;80.7
38221;DHT22;24023;51.280;7.148;2023-06-26T08:10:09;23.1;81.2
38221;DHT22;24023;51.280;7.148;2023-06-26T08:15:08;23.2;78.6
38221;DHT22;24023;51.280;7.148;2023-06-26T08:20:09;23.7;79.3
38221;DHT22;24023;51.280;7.148;2023-06-26T08:25:07;23.4;79.6
38221;DHT22;24023;51.280;7.148;2023-06-26T08:30:10;23.4;79.6
38221;DHT22;24023;51.280;7.148;2023-06-26T08:35:07;23.4;79.6
38221;DHT22;24023;51.280;7.148;2023-06-26T08:40:08;23.5;78.9
38221;DHT22;24023;51.280;7.148;2023-06-26T08:45:11;23.5;78.9
38221;DHT22;24023;51.280;7.148;2023-06-26T08:50:10;23.7;79.4
38221;DHT22;24023;51.280;7.148;2023-06-26T08:55:09;23.7;79.4
38221;DHT22;24023;51.280;7.148;2023-06-26T09:00:11;23.7;79.4
38221;DHT22;24023;51.280;7.148;2023-06-26T09:05:07;23.8;78.2
38221;DHT22;24023;51.280;7.148;2023-06-26T09:10:08;24.1;78.8
38221;DHT22;24023;51.280;7.148;2023-06-26T09:15:08;24.1;78.8
38221;DHT22;24023;51.280;7.148;2023-06-26T09:20:09;23.5;79.2
38221;DHT22;24023;51.280;7.148;2023-06-26T09:25:07;23.5;79.4
38221;DHT22;24023;51.280;7.148;2023-06-26T09:30:10;23.5;79.4
38221;DHT22;24023;51.280;7.148;2023-06-26T09:35:06;24.2;76.7
38221;DHT22;24023;51.280;7.148;2023-06-26T09:40:09;24.2;76.7
38221;DHT22;24023;51.280;7.148;2023-06-26T09:45:18;24.5;76.1
38221;DHT22;24023;51.280;7.148;2023-06-26T09:50:21;24.5;76.1
38221;DHT22;24023;51.280;7.148;2023-06-26T09:55:09;24.9;74.5
38221;DHT22;24023;51.280;7.148;2023-06-26T10:00:14;24.9;74.5
38221;DHT22;24023;51.280;7.148;2023-06-26T10:05:06;24.8;73.5
38221;DHT22;24023;51.280;7.148;2023-06-26T10:10:08;24.3;76.0
38221;DHT22;24023;51.280;7.148;2023-06-26T10:15:09;24.4;74.2
38221;DHT22;24023;51.280;7.148;2023-06-26T10:20:09;24.7;72.8
38221;DHT22;24023;51.280;7.148;2023-06-26T10:25:07;25.4;69.4
38221;DHT22;24023;51.280;7.148;2023-06-26T10:30:12;25.4;69.4
38221;DHT22;24023;51.280;7.148;2023-06-26T10:35:07;25.4;71.1
38221;DHT22;24023;51.280;7.148;2023-06-26T10:40:08;26.4;67.6
38221;DHT22;24023;51.280;7.148;2023-06-26T10:45:10;26.6;65.6
38221;DHT22;24023;51.280;7.148;2023-06-26T10:50:24;26.3;61.2
38221;DHT22;24023;51.280;7.148;2023-06-26T10:55:08;27.0;62.8
38221;DHT22;24023;51.280;7.148;2023-06-26T11:00:14;27.2;64.4
38221;DHT22;24023;51.280;7.148;2023-06-26T11:05:06;27.9;59.8
38221;DHT22;24023;51.280;7.148;2023-06-26T11:10:09;28.1;60.1
38221;DHT22;24023;51.280;7.148;2023-06-26T11:15:08;27.3;62.0
38221;DHT22;24023;51.280;7.148;2023-06-26T11:20:10;27.3;62.0
38221;DHT22;24023;51.280;7.148;2023-06-26T11:25:07;28.4;62.1
38221;DHT22;24023;51.280;7.148;2023-06-26T11:30:10;28.4;59.1
38221;DHT22;24023;51.280;7.148;2023-06-26T11:35:07;28.4;59.1
38221;DHT22;24023;51.280;7.148;2023-06-26T11:40:23;27.6;59.4
38221;DHT22;24023;51.280;7.148;2023-06-26T11:45:09;26.9;60.1
38221;DHT22;24023;51.280;7.148;2023-06-26T11:50:14;27.8;61.4
38221;DHT22;24023;51.280;7.148;2023-06-26T11:55:07;27.0;60.0
38221;DHT22;24023;51.280;7.148;2023-06-26T12:00:12;27.0;60.0
38221;DHT22;24023;51.280;7.148;2023-06-26T12:05:07;28.3;56.3
38221;DHT22;24023;51.280;7.148;2023-06-26T12:10:07;28.3;56.3
38221;DHT22;24023;51.280;7.148;2023-06-26T12:15:08;27.8;57.1
38221;DHT22;24023;51.280;7.148;2023-06-26T12:20:18;28.2;50.8
38221;DHT22;24023;51.280;7.148;2023-06-26T12:25:07;28.8;54.1
38221;DHT22;24023;51.280;7.148;2023-06-26T12:30:09;29.2;53.7
38221;DHT22;24023;51.280;7.148;2023-06-26T12:35:07;27.8;53.6
38221;DHT22;24023;51.280;7.148;2023-06-26T12:40:17;27.8;53.6
38221;DHT22;24023;51.280;7.148;2023-06-26T12:45:11;26.6;55.7
38221;DHT22;24023;51.280;7.148;2023-06-26T12:50:08;26.6;54.6
38221;DHT22;24023;51.280;7.148;2023-06-26T12:55:06;26.1;56.3
38221;DHT22;24023;51.280;7.148;2023-06-26T13:00:12;26.2;55.6
38221;DHT22;24023;51.280;7.148;2023-06-26T13:05:06;26.2;55.6
38221;DHT22;24023;51.280;7.148;2023-06-26T13:10:08;25.3;56.3
38221;DHT22;24023;51.280;7.148;2023-06-26T13:15:08;25.4;56.2
38221;DHT22;24023;51.280;7.148;2023-06-26T13:20:11;25.4;56.2
38221;DHT22;24023;51.280;7.148;2023-06-26T13:25:06;26.0;53.3
38221;DHT22;24023;51.280;7.148;2023-06-26T13:30:10;26.6;56.4
38221;DHT22;24023;51.280;7.148;2023-06-26T13:40:08;26.1;53.7
38221;DHT22;24023;51.280;7.148;2023-06-26T13:45:12;26.2;51.4
38221;DHT22;24023;51.280;7.148;2023-06-26T13:50:09;26.2;53.2
38221;DHT22;24023;51.280;7.148;2023-06-26T14:10:17;28.4;51.3
38221;DHT22;24023;51.280;7.148;2023-06-26T14:20:10;26.2;54.1
38221;DHT22;24023;51.280;7.148;2023-06-26T14:25:11;27.5;52.9
38221;DHT22;24023;51.280;7.148;2023-06-26T14:30:09;28.7;47.6
38221;DHT22;24023;51.280;7.148;2023-06-26T14:40:08;27.5;46.2
38221;DHT22;24023;51.280;7.148;2023-06-26T14:50:09;28.3;46.6
38221;DHT22;24023;51.280;7.148;2023-06-26T14:55:06;27.9;47.2
38221;DHT22;24023;51.280;7.148;2023-06-26T15:05:07;27.7;48.0
38221;DHT22;24023;51.280;7.148;2023-06-26T15:10:08;27.7;48.0
38221;DHT22;24023;51.280;7.148;2023-06-26T15:15:09;27.0;50.9
38221;DHT22;24023;51.280;7.148;2023-06-26T15:20:08;26.3;49.5
38221;DHT22;24023;51.280;7.148;2023-06-26T15:25:06;26.2;51.6
38221;DHT22;24023;51.280;7.148;2023-06-26T15:30:10;25.8;55.1
38221;DHT22;24023;51.280;7.148;2023-06-26T15:35:07;25.5;50.4
38221;DHT22;24023;51.280;7.148;2023-06-26T15:40:08;25.0;51.3
38221;DHT22;24023;51.280;7.148;2023-06-26T15:45:09;24.9;50.7
38221;DHT22;24023;51.280;7.148;2023-06-26T15:50:08;24.9;52.9
38221;DHT22;24023;51.280;7.148;2023-06-26T15:55:07;25.1;51.9
38221;DHT22;24023;51.280;7.148;2023-06-26T16:00:13;25.1;51.9
38221;DHT22;24023;51.280;7.148;2023-06-26T16:05:06;25.7;50.0
38221;DHT22;24023;51.280;7.148;2023-06-26T16:10:08;25.7;49.4
38221;DHT22;24023;51.280;7.148;2023-06-26T16:15:07;25.8;50.1
38221;DHT22;24023;51.280;7.148;2023-06-26T16:20:09;25.5;49.9
38221;DHT22;24023;51.280;7.148;2023-06-26T16:25:06;25.1;48.7
38221;DHT22;24023;51.280;7.148;2023-06-26T16:30:09;25.1;48.7
38221;DHT22;24023;51.280;7.148;2023-06-26T16:35:06;25.4;49.7
38221;DHT22;24023;51.280;7.148;2023-06-26T16:40:08;25.3;50.1
38221;DHT22;24023;51.280;7.148;2023-06-26T16:45:10;24.8;52.7
38221;DHT22;24023;51.280;7.148;2023-06-26T16:50:08;24.8;52.7
38221;DHT22;24023;51.280;7.148;2023-06-26T16:55:07;24.8;52.7
38221;DHT22;24023;51.280;7.148;2023-06-26T17:00:11;23.8;52.5
38221;DHT22;24023;51.280;7.148;2023-06-26T17:05:06;23.8;52.5
38221;DHT22;24023;51.280;7.148;2023-06-26T17:10:08;23.7;55.2
38221;DHT22;24023;51.280;7.148;2023-06-26T17:15:07;23.7;52.8
38221;DHT22;24023;51.280;7.148;2023-06-26T17:20:10;23.7;52.8
38221;DHT22;24023;51.280;7.148;2023-06-26T17:25:07;23.3;51.9
38221;DHT22;24023;51.280;7.148;2023-06-26T17:30:10;23.1;54.3
38221;DHT22;24023;51.280;7.148;2023-06-26T17:35:08;22.8;57.9
38221;DHT22;24023;51.280;7.148;2023-06-26T17:40:09;22.8;57.9
38221;DHT22;24023;51.280;7.148;2023-06-26T17:45:09;23.0;58.6
38221;DHT22;24023;51.280;7.148;2023-06-26T17:50:07;23.0;58.6
38221;DHT22;24023;51.280;7.148;2023-06-26T17:55:07;23.0;58.6
38221;DHT22;24023;51.280;7.148;2023-06-26T18:00:11;22.4;59.2
38221;DHT22;24023;51.280;7.148;2023-06-26T18:05:07;22.4;59.2
38221;DHT22;24023;51.280;7.148;2023-06-26T18:10:08;22.4;59.2
38221;DHT22;24023;51.280;7.148;2023-06-26T18:15:07;22.5;58.4
38221;DHT22;24023;51.280;7.148;2023-06-26T18:20:08;22.5;58.4
38221;DHT22;24023;51.280;7.148;2023-06-26T18:25:06;21.9;57.4
38221;DHT22;24023;51.280;7.148;2023-06-26T18:30:09;21.9;57.4
38221;DHT22;24023;51.280;7.148;2023-06-26T18:35:06;21.9;57.4
38221;DHT22;24023;51.280;7.148;2023-06-26T18:40:10;21.9;57.3
38221;DHT22;24023;51.280;7.148;2023-06-26T18:45:11;21.9;57.3
38221;DHT22;24023;51.280;7.148;2023-06-26T18:50:07;21.8;59.5
38221;DHT22;24023;51.280;7.148;2023-06-26T18:55:06;21.8;59.5
38221;DHT22;24023;51.280;7.148;2023-06-26T19:00:12;21.5;58.4
38221;DHT22;24023;51.280;7.148;2023-06-26T19:05:06;21.3;60.7
38221;DHT22;24023;51.280;7.148;2023-06-26T19:10:09;21.0;61.7
38221;DHT22;24023;51.280;7.148;2023-06-26T19:15:07;20.8;60.7
38221;DHT22;24023;51.280;7.148;2023-06-26T19:20:07;20.5;65.1
38221;DHT22;24023;51.280;7.148;2023-06-26T19:25:07;20.5;65.1
38221;DHT22;24023;51.280;7.148;2023-06-26T19:30:09;20.3;62.9
38221;DHT22;24023;51.280;7.148;2023-06-26T19:35:07;20.3;63.8
38221;DHT22;24023;51.280;7.148;2023-06-26T19:40:08;20.3;63.8
38221;DHT22;24023;51.280;7.148;2023-06-26T19:45:09;20.2;66.7
38221;DHT22;24023;51.280;7.148;2023-06-26T19:50:08;19.9;63.2
38221;DHT22;24023;51.280;7.148;2023-06-26T19:55:06;19.9;63.2
38221;DHT22;24023;51.280;7.148;2023-06-26T20:00:11;19.9;65.7
38221;DHT22;24023;51.280;7.148;2023-06-26T20:05:07;19.8;65.2
38221;DHT22;24023;51.280;7.148;2023-06-26T20:10:07;19.7;65.3
38221;DHT22;24023;51.280;7.148;2023-06-26T20:15:08;19.7;63.0
38221;DHT22;24023;51.280;7.148;2023-06-26T20:20:08;19.7;61.6
38221;DHT22;24023;51.280;7.148;2023-06-26T20:25:06;19.4;63.0
38221;DHT22;24023;51.280;7.148;2023-06-26T20:30:09;19.3;65.2
38221;DHT22;24023;51.280;7.148;2023-06-26T20:35:07;18.8;64.3
38221;DHT22;24023;51.280;7.148;2023-06-26T20:40:08;18.5;65.8
38221;DHT22;24023;51.280;7.148;2023-06-26T20:45:11;18.5;65.8
38221;DHT22;24023;51.280;7.148;2023-06-26T20:50:08;18.2;68.0
38221;DHT22;24023;51.280;7.148;2023-06-26T20:55:07;18.2;68.0
38221;DHT22;24023;51.280;7.148;2023-06-26T21:00:17;17.9;70.8
38221;DHT22;24023;51.280;7.148;2023-06-26T21:05:07;17.9;70.8
38221;DHT22;24023;51.280;7.148;2023-06-26T21:10:09;17.7;70.6
38221;DHT22;24023;51.280;7.148;2023-06-26T21:15:07;17.7;70.6
38221;DHT22;24023;51.280;7.148;2023-06-26T21:20:08;17.7;70.6
38221;DHT22;24023;51.280;7.148;2023-06-26T21:25:06;17.3;71.3
38221;DHT22;24023;51.280;7.148;2023-06-26T21:30:09;17.3;73.5
38221;DHT22;24023;51.280;7.148;2023-06-26T21:35:06;17.1;72.4
38221;DHT22;24023;51.280;7.148;2023-06-26T21:40:08;17.1;72.4
38221;DHT22;24023;51.280;7.148;2023-06-26T21:45:08;17.0;72.0
38221;DHT22;24023;51.280;7.148;2023-06-26T21:50:08;16.9;72.2
38221;DHT22;24023;51.280;7.148;2023-06-26T21:55:07;16.8;74.4
38221;DHT22;24023;51.280;7.148;2023-06-26T22:00:21;16.8;74.4
38221;DHT22;24023;51.280;7.148;2023-06-26T22:05:08;16.8;73.9
38221;DHT22;24023;51.280;7.148;2023-06-26T22:10:09;16.7;76.5
38221;DHT22;24023;51.280;7.148;2023-06-26T22:15:08;16.7;73.9
38221;DHT22;24023;51.280;7.148;2023-06-26T22:20:10;16.7;75.6
38221;DHT22;24023;51.280;7.148;2023-06-26T22:25:07;16.7;75.6
38221;DHT22;24023;51.280;7.148;2023-06-26T22:30:09;16.4;75.2
38221;DHT22;24023;51.280;7.148;2023-06-26T22:35:06;16.4;75.2
38221;DHT22;24023;51.280;7.148;2023-06-26T22:40:09;16.1;77.3
38221;DHT22;24023;51.280;7.148;2023-06-26T22:45:11;16.1;77.3
38221;DHT22;24023;51.280;7.148;2023-06-26T22:50:08;16.0;77.1
38221;DHT22;24023;51.280;7.148;2023-06-26T22:55:06;16.0;77.1
38221;DHT22;24023;51.280;7.148;2023-06-26T23:00:12;16.0;77.1
38221;DHT22;24023;51.280;7.148;2023-06-26T23:05:08;16.3;77.0
38221;DHT22;24023;51.280;7.148;2023-06-26T23:10:08;16.3;77.0
38221;DHT22;24023;51.280;7.148;2023-06-26T23:15:08;16.0;77.1
38221;DHT22;24023;51.280;7.148;2023-06-26T23:20:09;16.0;77.1
38221;DHT22;24023;51.280;7.148;2023-06-26T23:25:06;15.8;79.3
38221;DHT22;24023;51.280;7.148;2023-06-26T23:30:10;15.9;78.4
38221;DHT22;24023;51.280;7.148;2023-06-26T23:35:06;15.9;78.4
38221;DHT22;24023;51.280;7.148;2023-06-26T23:40:11;15.8;78.7
38221;DHT22;24023;51.280;7.148;2023-06-26T23:45:09;15.8;78.7
38221;DHT22;24023;51.280;7.148;2023-06-26T23:50:07;15.9;79.1
38221;DHT22;24023;51.280;7.148;2023-06-26T23:55:09;15.9;79.1
